createdAt,value
2018-08-16T00:00:48.570Z,45.00
2018-08-16T00:03:18.340Z,51.67
2018-08-16T00:05:48.550Z,45.53
2018-08-16T00:08:18.127Z,46.70
2018-08-16T00:10:47.550Z,38.30
2018-08-16T00:13:18.634Z,45.63
2018-08-16T00:15:48.533Z,40.77
2018-08-16T00:18:17.998Z,34.97
2018-08-16T00:20:47.961Z,36.93
2018-08-16T00:23:17.362Z,36.50
2018-08-16T00:25:47.269Z,41.50
2018-08-16T00:28:17.120Z,30.43
2018-08-16T00:30:46.794Z,18.07
2018-08-16T00:33:17.104Z,22.30
2018-08-16T00:35:46.686Z,24.13
2018-08-16T00:38:16.228Z,28.07
2018-08-16T00:40:46.238Z,27.93
2018-08-16T00:43:16.483Z,28.10
2018-08-16T00:45:46.234Z,26.37
2018-08-16T00:48:15.698Z,28.73
2018-08-16T00:50:45.725Z,24.37
2018-08-16T00:53:15.235Z,25.47
2018-08-16T00:55:44.631Z,21.17
2018-08-16T00:58:14.504Z,21.77
2018-08-16T01:00:43.953Z,24.87
2018-08-16T01:03:13.433Z,25.60
2018-08-16T01:05:43.595Z,23.90
2018-08-16T01:08:13.178Z,19.17
2018-08-16T01:10:42.898Z,22.00
2018-08-16T01:13:13.031Z,20.50
2018-08-16T01:15:42.536Z,17.47
2018-08-16T01:18:12.419Z,18.83
2018-08-16T01:20:42.192Z,14.37
2018-08-16T01:23:11.981Z,23.67
2018-08-16T01:25:41.616Z,19.13
2018-08-16T01:28:11.725Z,14.27
2018-08-16T01:30:41.101Z,23.60
2018-08-16T01:33:10.654Z,17.03
2018-08-16T01:35:40.806Z,22.83
2018-08-16T01:38:11.172Z,24.17
2018-08-16T01:40:41.032Z,19.40
2018-08-16T01:43:11.081Z,16.37
2018-08-16T01:45:40.966Z,12.47
2018-08-16T01:48:11.669Z,13.33
2018-08-16T01:50:41.619Z,8.47
2018-08-16T01:53:11.585Z,12.53
2018-08-16T01:55:41.378Z,13.43
2018-08-16T01:58:11.193Z,11.27
2018-08-16T02:00:40.803Z,10.17
2018-08-16T02:03:10.722Z,13.57
2018-08-16T02:05:40.307Z,12.17
2018-08-16T02:08:10.051Z,10.63
2018-08-16T02:10:39.858Z,13.23
2018-08-16T02:13:09.529Z,9.97
2018-08-16T02:15:38.935Z,13.03
2018-08-16T02:18:08.703Z,12.70
2018-08-16T02:20:38.460Z,9.70
2018-08-16T02:23:07.928Z,12.50
2018-08-16T02:25:37.809Z,11.93
2018-08-16T02:28:08.042Z,10.37
2018-08-16T02:30:37.434Z,9.37
2018-08-16T02:33:07.546Z,12.07
2018-08-16T02:35:37.344Z,13.47
2018-08-16T02:38:06.859Z,16.47
2018-08-16T02:40:36.389Z,9.77
2018-08-16T02:43:06.282Z,9.20
2018-08-16T02:45:36.010Z,10.00
2018-08-16T02:48:05.830Z,8.97
2018-08-16T02:50:35.509Z,13.10
2018-08-16T02:53:05.334Z,10.67
2018-08-16T02:55:35.001Z,13.20
2018-08-16T02:58:04.716Z,13.03
2018-08-16T03:00:34.315Z,12.37
2018-08-16T03:03:09.318Z,13.27
2018-08-16T03:05:38.961Z,12.13
2018-08-16T03:08:09.347Z,9.63
2018-08-16T03:10:39.476Z,11.90
2018-08-16T03:13:08.981Z,9.70
2018-08-16T03:15:38.585Z,14.43
2018-08-16T03:18:08.684Z,10.07
2018-08-16T03:20:38.224Z,9.43
2018-08-16T03:23:08.156Z,15.50
2018-08-16T03:25:38.770Z,11.07
2018-08-16T03:28:08.200Z,10.37
2018-08-16T03:30:37.543Z,11.67
2018-08-16T03:33:07.279Z,10.73
2018-08-16T03:35:37.106Z,9.50
2018-08-16T03:38:06.968Z,13.33
2018-08-16T03:40:39.614Z,10.23
2018-08-16T03:43:09.523Z,10.93
2018-08-16T03:45:39.550Z,10.13
2018-08-16T03:48:09.507Z,10.00
2018-08-16T03:50:38.919Z,10.33
2018-08-16T03:53:08.490Z,12.40
2018-08-16T03:55:38.610Z,10.83
2018-08-16T03:58:08.379Z,12.07
2018-08-16T04:00:38.052Z,14.47
2018-08-16T04:03:07.876Z,13.80
2018-08-16T04:05:37.431Z,17.60
2018-08-16T04:08:07.592Z,12.80
2018-08-16T04:10:37.535Z,13.27
2018-08-16T04:13:07.146Z,18.60
2018-08-16T04:15:36.642Z,18.00
2018-08-16T04:18:06.106Z,18.47
2018-08-16T04:20:35.966Z,17.43
2018-08-16T04:23:05.723Z,18.07
2018-08-16T04:25:35.400Z,19.13
2018-08-16T04:28:05.198Z,20.27
2018-08-16T04:30:35.130Z,23.70
2018-08-16T04:33:04.779Z,18.27
2018-08-16T04:35:34.381Z,17.27
2018-08-16T04:38:05.412Z,19.13
2018-08-16T04:40:34.947Z,18.63
2018-08-16T04:43:04.409Z,20.20
2018-08-16T04:45:34.450Z,19.37
2018-08-16T04:48:03.918Z,17.93
2018-08-16T04:50:33.623Z,19.43
2018-08-16T04:53:04.048Z,18.53
2018-08-16T04:55:33.542Z,30.20
2018-08-16T04:58:03.183Z,23.93
2018-08-16T05:00:33.135Z,22.30
2018-08-16T05:03:02.903Z,21.77
2018-08-16T05:05:32.401Z,16.77
2018-08-16T05:08:01.876Z,18.43
2018-08-16T05:10:31.646Z,18.83
2018-08-16T05:13:01.205Z,21.33
2018-08-16T05:15:31.504Z,22.73
2018-08-16T05:18:01.320Z,28.67
2018-08-16T05:20:31.239Z,26.57
2018-08-16T05:23:01.236Z,22.83
2018-08-16T05:25:30.774Z,26.97
2018-08-16T05:28:00.308Z,32.70
2018-08-16T05:30:30.250Z,30.77
2018-08-16T05:32:59.751Z,33.80
2018-08-16T05:35:29.315Z,44.40
2018-08-16T05:37:59.062Z,41.07
2018-08-16T05:40:28.537Z,39.83
2018-08-16T05:42:58.270Z,44.90
2018-08-16T05:45:28.380Z,37.67
2018-08-16T05:47:58.510Z,41.60
2018-08-16T05:50:28.058Z,40.97
2018-08-16T05:52:57.402Z,35.07
2018-08-16T05:55:27.217Z,43.73
2018-08-16T05:57:56.947Z,41.57
2018-08-16T06:00:27.074Z,44.77
2018-08-16T06:02:56.711Z,47.03
2018-08-16T06:05:26.390Z,37.20
2018-08-16T06:07:56.538Z,39.60
2018-08-16T06:10:26.256Z,36.53
2018-08-16T06:12:55.828Z,35.47
2018-08-16T06:15:25.865Z,29.43
2018-08-16T06:17:55.353Z,32.53
2018-08-16T06:20:25.174Z,35.37
2018-08-16T06:22:54.678Z,33.90
2018-08-16T06:25:24.484Z,37.47
2018-08-16T06:27:54.108Z,33.47
2018-08-16T06:30:23.855Z,38.00
2018-08-16T06:32:53.459Z,36.30
2018-08-16T06:35:23.048Z,37.17
2018-08-16T06:37:53.035Z,30.83
2018-08-16T06:40:22.864Z,27.63
2018-08-16T06:42:52.279Z,39.23
2018-08-16T06:45:22.700Z,38.23
2018-08-16T06:47:52.198Z,25.23
2018-08-16T06:50:21.900Z,36.00
2018-08-16T06:52:51.692Z,34.17
2018-08-16T06:55:21.516Z,29.57
2018-08-16T06:57:51.225Z,29.30
2018-08-16T07:00:20.801Z,35.03
2018-08-16T07:02:50.558Z,28.57
2018-08-16T07:05:20.260Z,29.20
2018-08-16T07:07:50.127Z,28.03
2018-08-16T07:10:20.088Z,23.47
2018-08-16T07:12:49.567Z,25.73
2018-08-16T07:15:19.473Z,40.40
2018-08-16T07:17:49.187Z,31.87
2018-08-16T07:20:18.956Z,59.50
2018-08-16T07:22:48.978Z,102.03
2018-08-16T07:25:18.343Z,28.97
2018-08-16T07:27:47.876Z,30.87
2018-08-16T07:30:17.918Z,26.90
2018-08-16T07:32:47.498Z,20.67
2018-08-16T07:35:17.022Z,24.17
2018-08-16T07:37:47.221Z,21.97
2018-08-16T07:40:16.830Z,26.53
2018-08-16T07:42:46.648Z,22.17
2018-08-16T07:45:16.486Z,20.50
2018-08-16T07:47:46.222Z,22.50
2018-08-16T07:50:16.030Z,18.43
2018-08-16T07:52:46.150Z,19.47
2018-08-16T07:55:15.630Z,21.83
2018-08-16T07:57:45.234Z,17.83
2018-08-16T08:00:17.938Z,24.07
2018-08-16T08:02:47.842Z,25.03
2018-08-16T08:05:17.504Z,18.30
2018-08-16T08:07:47.264Z,30.73
2018-08-16T08:10:16.956Z,37.20
2018-08-16T08:12:46.529Z,25.37
2018-08-16T08:15:16.847Z,21.83
2018-08-16T08:17:46.536Z,38.77
2018-08-16T08:20:16.745Z,20.73
2018-08-16T08:22:47.044Z,19.20
2018-08-16T08:25:16.932Z,20.43
2018-08-16T08:27:46.580Z,15.97
2018-08-16T08:30:17.375Z,26.07
2018-08-16T08:32:47.083Z,15.13
2018-08-16T08:35:16.698Z,14.17
2018-08-16T08:37:58.665Z,12.07
2018-08-16T08:40:28.512Z,16.60
2018-08-16T08:42:58.248Z,14.57
2018-08-16T08:45:28.163Z,11.80
2018-08-16T08:47:58.649Z,15.93
2018-08-16T08:50:28.901Z,15.53
2018-08-16T08:53:09.475Z,15.00
2018-08-16T08:55:50.667Z,13.60
2018-08-16T08:59:01.715Z,14.97
2018-08-16T09:01:31.415Z,14.60
2018-08-16T09:04:00.821Z,34.07
2018-08-16T09:06:30.585Z,12.43
2018-08-16T09:09:00.499Z,11.57
2018-08-16T09:11:40.889Z,18.57
2018-08-16T09:14:21.931Z,12.83
2018-08-16T09:16:51.292Z,28.40
2018-08-16T09:19:20.945Z,11.80
2018-08-16T09:21:50.881Z,10.90
2018-08-16T09:24:20.569Z,9.87
2018-08-16T09:26:49.858Z,9.60
2018-08-16T09:29:50.056Z,10.93
2018-08-16T09:32:30.435Z,12.97
2018-08-16T09:35:00.579Z,10.97
2018-08-16T09:37:35.317Z,12.73
2018-08-16T09:40:06.004Z,14.97
2018-08-16T09:42:35.797Z,15.10
2018-08-16T09:45:16.573Z,15.60
2018-08-16T09:47:57.043Z,15.30
2018-08-16T09:50:26.707Z,13.40
2018-08-16T09:52:56.808Z,8.83
2018-08-16T09:55:26.309Z,17.23
2018-08-16T09:57:56.131Z,14.23
2018-08-16T10:00:31.062Z,10.83
2018-08-16T10:03:00.790Z,32.23
2018-08-16T10:05:30.223Z,25.57
2018-08-16T10:07:59.958Z,10.77
2018-08-16T10:10:30.218Z,10.03
2018-08-16T10:12:59.607Z,12.03
2018-08-16T10:15:29.529Z,11.63
2018-08-16T10:17:58.891Z,10.87
2018-08-16T10:20:28.514Z,10.20
2018-08-16T10:22:57.933Z,12.30
2018-08-16T10:25:27.937Z,13.37
2018-08-16T10:27:57.567Z,10.03
2018-08-16T10:30:26.909Z,13.57
2018-08-16T10:32:57.545Z,7.90
2018-08-16T10:35:27.302Z,9.13
2018-08-16T10:37:56.839Z,10.93
2018-08-16T10:40:26.582Z,6.80
2018-08-16T10:42:56.326Z,11.63
2018-08-16T10:45:25.744Z,8.73
2018-08-16T10:47:55.813Z,9.43
2018-08-16T10:50:25.782Z,9.30
2018-08-16T10:52:55.034Z,9.90
2018-08-16T10:55:25.215Z,8.90
2018-08-16T10:57:55.201Z,9.47
2018-08-16T11:00:24.927Z,6.20
2018-08-16T11:02:54.997Z,9.07
2018-08-16T11:05:24.525Z,12.17
2018-08-16T11:07:53.944Z,8.07
2018-08-16T11:10:23.769Z,15.63
2018-08-16T11:12:53.446Z,18.63
2018-08-16T11:15:23.237Z,8.37
2018-08-16T11:17:52.950Z,14.70
2018-08-16T11:20:22.400Z,8.00
2018-08-16T11:22:52.319Z,8.20
2018-08-16T11:25:22.270Z,8.67
2018-08-16T11:27:51.661Z,7.37
2018-08-16T11:30:21.307Z,9.33
2018-08-16T11:32:51.011Z,9.43
2018-08-16T11:35:20.690Z,9.77
2018-08-16T11:37:50.726Z,7.27
2018-08-16T11:40:20.742Z,12.50
2018-08-16T11:42:50.821Z,9.57
2018-08-16T11:45:20.271Z,7.53
2018-08-16T11:47:50.462Z,8.73
2018-08-16T11:50:20.074Z,9.57
2018-08-16T11:52:49.478Z,8.93
2018-08-16T11:55:19.735Z,10.97
2018-08-16T11:57:49.283Z,7.83
2018-08-16T12:00:18.936Z,12.07
2018-08-16T12:02:48.529Z,8.50
2018-08-16T12:05:18.347Z,10.63
2018-08-16T12:07:48.166Z,7.57
2018-08-16T12:10:18.112Z,6.47
2018-08-16T12:12:47.537Z,6.80
2018-08-16T12:15:17.184Z,6.80
2018-08-16T12:17:47.408Z,8.47
2018-08-16T12:20:16.941Z,7.50
2018-08-16T12:22:46.627Z,18.10
2018-08-16T12:25:16.574Z,20.33
2018-08-16T12:27:46.354Z,15.70
2018-08-16T12:30:15.977Z,9.10
2018-08-16T12:32:45.528Z,14.27
2018-08-16T12:35:15.161Z,10.27
2018-08-16T12:37:44.853Z,7.23
2018-08-16T12:40:14.215Z,10.57
2018-08-16T12:42:43.697Z,10.90
2018-08-16T12:45:13.358Z,12.33
2018-08-16T12:47:42.981Z,7.00
2018-08-16T12:50:12.743Z,9.53
2018-08-16T12:52:42.635Z,8.50
2018-08-16T12:55:12.607Z,10.43
2018-08-16T12:57:42.173Z,17.03
2018-08-16T13:00:15.721Z,18.60
2018-08-16T13:02:45.733Z,8.83
2018-08-16T13:05:15.394Z,15.90
2018-08-16T13:07:45.525Z,37.23
2018-08-16T13:10:15.227Z,7.70
2018-08-16T13:12:44.937Z,12.20
2018-08-16T13:15:15.454Z,8.93
2018-08-16T13:17:45.074Z,12.93
2018-08-16T13:20:14.943Z,8.23
2018-08-16T13:22:45.189Z,8.03
2018-08-16T13:25:15.783Z,9.17
2018-08-16T13:27:45.320Z,12.00
2018-08-16T13:30:14.735Z,10.57
2018-08-16T13:32:44.070Z,8.17
2018-08-16T13:35:14.294Z,9.73
2018-08-16T13:37:43.779Z,10.63
2018-08-16T13:40:13.588Z,12.73
2018-08-16T13:42:43.753Z,15.03
2018-08-16T13:45:13.436Z,12.30
2018-08-16T13:47:43.050Z,12.47
2018-08-16T13:50:13.185Z,14.80
2018-08-16T13:52:42.559Z,15.73
2018-08-16T13:55:12.597Z,10.73
2018-08-16T13:57:42.827Z,9.30
2018-08-16T14:00:12.371Z,7.73
2018-08-16T14:02:42.037Z,9.30
2018-08-16T14:05:11.929Z,8.50
2018-08-16T14:07:41.915Z,13.20
2018-08-16T14:10:11.702Z,7.80
2018-08-16T14:12:41.224Z,7.30
2018-08-16T14:15:10.733Z,6.37
2018-08-16T14:17:40.336Z,5.63
2018-08-16T14:20:10.389Z,8.70
2018-08-16T14:22:40.102Z,7.57
2018-08-16T14:25:09.622Z,7.63
2018-08-16T14:27:39.469Z,4.50
2018-08-16T14:30:09.551Z,5.27
2018-08-16T14:32:39.517Z,6.30
2018-08-16T14:35:09.286Z,6.63
2018-08-16T14:37:39.324Z,11.37
2018-08-16T14:40:09.238Z,11.07
2018-08-16T14:42:38.902Z,7.70
2018-08-16T14:45:08.860Z,13.13
2018-08-16T14:47:38.673Z,14.83
2018-08-16T14:50:08.723Z,18.90
2018-08-16T14:52:38.486Z,15.90
2018-08-16T14:55:08.111Z,12.20
2018-08-16T14:57:38.413Z,9.83
2018-08-16T15:00:08.968Z,10.13
2018-08-16T15:02:38.847Z,7.90
2018-08-16T15:05:09.790Z,14.57
2018-08-16T15:07:39.475Z,12.33
2018-08-16T15:10:09.098Z,11.97
2018-08-16T15:12:38.899Z,9.23
2018-08-16T15:15:08.881Z,12.93
2018-08-16T15:17:38.451Z,12.10
2018-08-16T15:20:08.599Z,12.20
2018-08-16T15:22:38.303Z,10.47
2018-08-16T15:25:07.975Z,10.80
2018-08-16T15:27:37.759Z,13.60
2018-08-16T15:30:08.708Z,12.70
2018-08-16T15:32:38.332Z,8.37
2018-08-16T15:35:08.423Z,11.73
2018-08-16T15:37:38.262Z,11.63
2018-08-16T15:40:08.147Z,11.70
2018-08-16T15:42:38.290Z,13.03
2018-08-16T15:45:08.378Z,9.07
2018-08-16T15:47:37.868Z,5.50
2018-08-16T15:50:07.503Z,9.87
2018-08-16T15:52:37.096Z,9.57
2018-08-16T15:55:07.340Z,11.47
2018-08-16T15:57:37.450Z,8.97
2018-08-16T16:00:10.324Z,9.07
2018-08-16T16:02:41.093Z,9.63
2018-08-16T16:05:11.165Z,5.73
2018-08-16T16:07:40.777Z,10.10
2018-08-16T16:10:11.325Z,12.67
2018-08-16T16:12:41.430Z,38.30
2018-08-16T16:15:11.563Z,10.43
2018-08-16T16:17:42.270Z,12.17
2018-08-16T16:20:12.124Z,15.07
2018-08-16T16:22:41.813Z,35.17
2018-08-16T16:25:11.957Z,35.37
2018-08-16T16:27:41.752Z,23.83
2018-08-16T16:30:11.759Z,7.93
2018-08-16T16:32:42.011Z,10.70
2018-08-16T16:35:11.885Z,7.50
2018-08-16T16:37:41.440Z,14.23
2018-08-16T16:40:11.808Z,9.77
2018-08-16T16:42:41.509Z,18.43
2018-08-16T16:45:11.257Z,24.33
2018-08-16T16:47:41.238Z,15.07
2018-08-16T16:50:10.725Z,19.33
2018-08-16T16:52:40.384Z,13.27
2018-08-16T16:55:10.282Z,11.20
2018-08-16T16:57:39.710Z,13.97
2018-08-16T17:00:09.972Z,10.43
2018-08-16T17:02:39.648Z,16.63
2018-08-16T17:05:09.014Z,12.17
2018-08-16T17:07:38.874Z,10.93
2018-08-16T17:10:10.809Z,10.97
2018-08-16T17:12:40.640Z,10.60
2018-08-16T17:15:10.594Z,10.93
2018-08-16T17:17:40.963Z,40.20
2018-08-16T17:20:11.623Z,64.67
2018-08-16T17:22:42.285Z,95.33
2018-08-16T17:25:11.964Z,31.40
2018-08-16T17:27:41.757Z,13.10
2018-08-16T17:30:11.912Z,12.90
2018-08-16T17:32:41.690Z,15.57
2018-08-16T17:35:11.211Z,23.50
2018-08-16T17:37:41.274Z,13.53
2018-08-16T17:40:10.794Z,14.17
2018-08-16T17:42:40.795Z,13.23
2018-08-16T17:45:10.640Z,9.57
2018-08-16T17:47:40.303Z,14.10
2018-08-16T17:50:10.071Z,14.20
2018-08-16T17:52:39.923Z,17.40
2018-08-16T17:55:09.493Z,20.27
2018-08-16T17:57:39.098Z,59.53
2018-08-16T18:00:10.493Z,27.77
2018-08-16T18:02:39.846Z,38.53
2018-08-16T18:05:09.481Z,53.90
2018-08-16T18:07:39.074Z,11.27
2018-08-16T18:10:09.461Z,15.30
2018-08-16T18:12:39.186Z,15.87
2018-08-16T18:15:10.631Z,10.27
2018-08-16T18:17:40.214Z,13.33
2018-08-16T18:20:09.719Z,14.80
2018-08-16T18:22:39.624Z,8.57
2018-08-16T18:25:09.424Z,14.17
2018-08-16T18:27:39.029Z,10.87
2018-08-16T18:30:10.810Z,8.90
2018-08-16T18:32:40.408Z,15.63
2018-08-16T18:35:10.006Z,8.73
2018-08-16T18:37:40.035Z,14.17
2018-08-16T18:40:09.985Z,12.50
2018-08-16T18:42:39.668Z,49.83
2018-08-16T18:45:09.795Z,28.03
2018-08-16T18:47:39.591Z,42.70
2018-08-16T18:50:09.422Z,16.23
2018-08-16T18:52:39.538Z,17.00
2018-08-16T18:55:09.092Z,11.30
2018-08-16T18:57:39.063Z,11.87
2018-08-16T19:00:09.696Z,63.47
2018-08-16T19:02:39.314Z,75.20
2018-08-16T19:05:08.998Z,19.00
2018-08-16T19:07:38.788Z,17.27
2018-08-16T19:10:09.438Z,11.67
2018-08-16T19:12:39.238Z,19.10
2018-08-16T19:15:08.982Z,22.63
2018-08-16T19:17:38.693Z,14.03
2018-08-16T19:20:09.601Z,10.83
2018-08-16T19:22:39.207Z,14.77
2018-08-16T19:25:09.263Z,15.20
2018-08-16T19:27:39.138Z,12.63
2018-08-16T19:30:08.820Z,11.60
2018-08-16T19:32:38.385Z,11.27
2018-08-16T19:35:08.311Z,82.77
2018-08-16T19:37:38.168Z,44.13
2018-08-16T19:40:07.575Z,25.97
2018-08-16T19:42:37.740Z,30.30
2018-08-16T19:45:07.741Z,14.67
2018-08-16T19:47:37.259Z,15.07
2018-08-16T19:50:08.799Z,119.80
2018-08-16T19:52:38.475Z,43.13
2018-08-16T19:55:08.737Z,44.77
2018-08-16T19:57:38.678Z,27.67
2018-08-16T20:00:09.489Z,27.37
2018-08-16T20:02:39.441Z,35.83
2018-08-16T20:05:08.834Z,26.50
2018-08-16T20:07:38.444Z,29.27
2018-08-16T20:10:10.103Z,23.43
2018-08-16T20:12:39.783Z,18.43
2018-08-16T20:15:09.906Z,22.73
2018-08-16T20:17:39.855Z,71.43
2018-08-16T20:20:09.452Z,72.33
2018-08-16T20:22:39.150Z,26.77
2018-08-16T20:25:08.983Z,22.77
2018-08-16T20:27:38.818Z,21.33
2018-08-16T20:30:08.512Z,21.20
2018-08-16T20:32:37.967Z,25.13
2018-08-16T20:35:07.579Z,16.27
2018-08-16T20:37:37.325Z,19.27
2018-08-16T20:40:07.232Z,17.80
2018-08-16T20:59:58.703Z,15.80
2018-08-16T21:02:28.355Z,16.07
2018-08-16T21:04:57.789Z,18.77
2018-08-16T21:07:27.299Z,14.13
2018-08-16T21:09:57.059Z,14.80
2018-08-16T21:12:26.601Z,11.07
2018-08-16T21:14:56.190Z,15.33
2018-08-16T21:34:48.301Z,13.60
2018-08-16T21:37:17.977Z,17.70
2018-08-16T21:57:09.973Z,14.77
2018-08-16T21:59:39.449Z,26.27
2018-08-16T22:02:09.915Z,13.77
2018-08-16T22:04:39.970Z,18.33
2018-08-16T22:08:15.857Z,21.17
2018-08-16T22:10:46.226Z,16.63
2018-08-16T22:13:15.994Z,13.53
2018-08-16T22:33:07.684Z,15.10
2018-08-16T23:13:17.169Z,12.67
2018-08-16T23:15:47.045Z,13.73
2018-08-16T23:18:16.951Z,11.90
2018-08-16T23:20:47.121Z,11.80
2018-08-16T23:23:17.007Z,10.80
2018-08-16T23:25:46.921Z,8.57
2018-08-16T23:28:17.469Z,11.03
2018-08-16T23:30:48.081Z,10.83
2018-08-16T23:33:18.082Z,9.63
2018-08-16T23:35:48.073Z,10.17
2018-08-16T23:38:18.592Z,10.50
2018-08-16T23:40:48.919Z,11.63
2018-08-16T23:43:18.828Z,11.53
2018-08-16T23:45:48.663Z,10.90
2018-08-16T23:48:26.695Z,9.53
